createdAt,value
2023-03-26T00:02:17.682Z,13.20
2023-03-26T00:04:47.274Z,12.70
2023-03-26T00:07:16.812Z,12.80
2023-03-26T00:09:46.555Z,12.90
2023-03-26T00:12:16.039Z,13.20
2023-03-26T00:14:46.386Z,13.30
2023-03-26T00:17:17.144Z,13.10
2023-03-26T00:19:46.605Z,12.60
2023-03-26T00:22:17.186Z,12.90
2023-03-26T00:24:48.377Z,13.20
2023-03-26T00:27:18.426Z,13.30
2023-03-26T00:29:48.875Z,13.00
2023-03-26T00:32:18.526Z,12.50
2023-03-26T00:34:48.675Z,12.70
2023-03-26T00:37:19.112Z,13.00
2023-03-26T00:39:49.553Z,13.10
2023-03-26T00:42:19.203Z,12.80
2023-03-26T00:44:50.393Z,12.30
2023-03-26T00:47:20.411Z,12.00
2023-03-26T00:49:50.848Z,12.20
2023-03-26T00:52:22.850Z,12.40
2023-03-26T00:54:55.727Z,12.40
2023-03-26T00:57:35.101Z,12.50
2023-03-26T00:59:58.999Z,12.60
2023-03-26T01:02:30.295Z,12.60
2023-03-26T01:05:02.226Z,12.50
2023-03-26T01:07:32.016Z,12.60
2023-03-26T01:10:01.564Z,12.60
2023-03-26T01:12:33.279Z,12.70
2023-03-26T01:15:04.750Z,12.70
2023-03-26T01:17:38.727Z,12.70
2023-03-26T01:20:15.033Z,12.80
2023-03-26T01:22:47.654Z,12.80
2023-03-26T01:25:17.439Z,12.70
2023-03-26T01:27:52.387Z,12.80
2023-03-26T01:30:43.134Z,12.70
2023-03-26T01:33:26.774Z,12.70
2023-03-26T01:35:59.395Z,12.70
2023-03-26T01:38:55.520Z,12.90
2023-03-26T01:41:43.355Z,12.80
2023-03-26T01:44:37.885Z,12.80
2023-03-26T01:47:08.904Z,12.70
2023-03-26T01:49:38.841Z,12.70
2023-03-26T01:52:17.401Z,12.70
2023-03-26T01:54:47.969Z,12.80
2023-03-26T01:57:20.786Z,12.70
2023-03-26T02:00:04.870Z,12.70
2023-03-26T02:02:52.659Z,12.70
2023-03-26T02:05:38.901Z,12.60
2023-03-26T02:08:19.441Z,12.60
2023-03-26T02:10:52.505Z,12.60
2023-03-26T02:13:22.742Z,12.50
2023-03-26T02:16:04.704Z,12.50
2023-03-26T02:18:39.056Z,12.50
2023-03-26T02:21:14.396Z,12.60
2023-03-26T02:25:43.532Z,12.60
2023-03-26T02:28:13.215Z,12.80
2023-03-26T02:30:49.003Z,12.90
2023-03-26T02:33:18.570Z,13.00
2023-03-26T02:35:48.093Z,13.00
2023-03-26T02:38:19.255Z,13.00
2023-03-26T02:40:48.723Z,13.00
2023-03-26T02:43:18.784Z,13.00
2023-03-26T02:45:48.675Z,13.00
2023-03-26T02:48:36.449Z,13.00
2023-03-26T02:51:08.498Z,13.00
2023-03-26T02:53:54.888Z,12.90
2023-03-26T02:56:31.908Z,12.90
2023-03-26T02:59:08.869Z,12.90
2023-03-26T03:01:40.384Z,12.80
2023-03-26T03:04:12.230Z,12.90
2023-03-26T03:06:44.183Z,12.70
2023-03-26T03:09:14.374Z,12.70
2023-03-26T03:11:48.978Z,12.70
2023-03-26T03:14:18.518Z,12.70
2023-03-26T03:16:48.057Z,12.60
2023-03-26T03:19:17.911Z,12.80
2023-03-26T03:21:50.018Z,12.90
2023-03-26T03:24:19.786Z,13.00
2023-03-26T03:26:50.397Z,13.10
2023-03-26T03:29:21.579Z,13.20
2023-03-26T03:31:51.761Z,13.20
2023-03-26T03:34:29.243Z,13.30
2023-03-26T03:36:58.917Z,13.30
2023-03-26T03:39:32.926Z,13.20
2023-03-26T03:42:02.499Z,13.20
2023-03-26T03:44:32.043Z,13.20
2023-03-26T03:47:02.033Z,13.20
2023-03-26T03:49:31.617Z,13.20
2023-03-26T03:52:01.615Z,13.20
2023-03-26T03:54:32.932Z,13.20
2023-03-26T03:57:21.063Z,13.20
2023-03-26T03:59:56.970Z,13.20
2023-03-26T04:02:29.131Z,13.20
2023-03-26T04:05:00.438Z,13.20
2023-03-26T04:07:32.325Z,13.20
2023-03-26T04:10:10.969Z,13.20
2023-03-26T04:12:42.142Z,13.20
2023-03-26T04:15:13.474Z,13.20
2023-03-26T04:17:44.766Z,13.30
2023-03-26T04:20:15.842Z,13.20
2023-03-26T04:22:46.863Z,13.20
2023-03-26T04:25:17.749Z,13.20
2023-03-26T04:27:49.282Z,13.20
2023-03-26T04:30:27.606Z,13.20
2023-03-26T04:33:06.602Z,13.20
2023-03-26T04:35:40.012Z,13.20
2023-03-26T04:38:12.551Z,13.20
2023-03-26T04:40:46.451Z,13.20
2023-03-26T04:43:18.587Z,13.20
2023-03-26T04:46:04.173Z,13.10
2023-03-26T04:48:35.359Z,13.10
2023-03-26T04:51:07.381Z,13.10
2023-03-26T04:53:37.366Z,13.10
2023-03-26T04:56:28.588Z,13.10
2023-03-26T04:59:13.590Z,13.10
2023-03-26T05:01:45.488Z,13.10
2023-03-26T05:04:16.429Z,13.20
2023-03-26T05:06:46.394Z,13.10
2023-03-26T05:09:20.819Z,13.20
2023-03-26T05:11:55.108Z,13.10
2023-03-26T05:14:25.913Z,13.10
2023-03-26T05:16:57.272Z,13.10
2023-03-26T05:19:27.441Z,13.10
2023-03-26T05:21:57.033Z,13.00
2023-03-26T05:24:28.217Z,13.10
2023-03-26T05:26:58.289Z,13.00
2023-03-26T05:29:28.105Z,13.10
2023-03-26T05:31:58.032Z,13.10
2023-03-26T05:34:28.086Z,13.10
2023-03-26T05:36:57.641Z,13.10
2023-03-26T05:39:31.972Z,13.00
2023-03-26T05:42:19.768Z,13.00
2023-03-26T05:45:08.290Z,13.00
2023-03-26T05:47:38.144Z,13.00
2023-03-26T05:50:09.606Z,12.90
2023-03-26T05:52:40.718Z,12.80
2023-03-26T05:55:24.197Z,12.70
2023-03-26T05:58:11.721Z,12.70
2023-03-26T06:01:14.518Z,12.70
2023-03-26T06:03:47.316Z,12.60
2023-03-26T06:06:21.240Z,12.40
2023-03-26T06:09:01.548Z,12.40
2023-03-26T06:11:24.930Z,12.30
2023-03-26T06:13:54.315Z,12.30
2023-03-26T06:16:27.133Z,12.30
2023-03-26T06:18:57.788Z,12.30
2023-03-26T06:21:46.048Z,12.30
2023-03-26T06:24:20.394Z,12.30
2023-03-26T06:26:52.407Z,12.30
2023-03-26T06:29:35.995Z,12.40
2023-03-26T06:32:18.483Z,12.40
2023-03-26T06:34:39.919Z,12.30
2023-03-26T06:37:10.240Z,12.20
2023-03-26T06:39:40.781Z,12.20
2023-03-26T06:42:18.302Z,12.10
2023-03-26T06:44:49.595Z,12.10
2023-03-26T06:47:39.607Z,11.90
2023-03-26T06:50:28.496Z,11.90
2023-03-26T06:52:59.327Z,11.90
2023-03-26T06:55:36.124Z,11.80
2023-03-26T06:58:07.522Z,11.80
2023-03-26T07:00:44.726Z,11.80
2023-03-26T07:03:32.569Z,11.80
2023-03-26T07:06:20.004Z,11.80
2023-03-26T07:08:52.842Z,11.70
2023-03-26T07:11:25.765Z,11.70
2023-03-26T07:14:13.608Z,11.80
2023-03-26T07:16:44.876Z,11.80
2023-03-26T07:19:22.606Z,11.80
2023-03-26T07:21:52.883Z,11.80
2023-03-26T07:24:40.598Z,11.90
2023-03-26T07:27:31.750Z,11.80
2023-03-26T07:30:08.536Z,11.80
2023-03-26T07:32:57.826Z,11.90
2023-03-26T07:35:38.096Z,12.00
2023-03-26T07:38:44.776Z,12.00
2023-03-26T07:41:48.838Z,12.10
2023-03-26T07:44:42.199Z,12.00
2023-03-26T07:47:34.684Z,12.00
2023-03-26T07:50:20.888Z,12.00
2023-03-26T07:53:08.634Z,12.00
2023-03-26T07:55:54.579Z,11.90
2023-03-26T07:58:48.195Z,11.90
2023-03-26T08:01:38.630Z,12.00
2023-03-26T08:04:30.079Z,11.90
2023-03-26T08:07:13.154Z,12.00
2023-03-26T08:10:07.584Z,12.00
2023-03-26T08:13:02.479Z,12.00
2023-03-26T08:16:09.316Z,12.00
2023-03-26T08:18:57.509Z,12.00
2023-03-26T08:21:30.474Z,12.00
2023-03-26T08:24:03.675Z,12.00
2023-03-26T08:26:56.193Z,12.00
2023-03-26T08:29:45.302Z,12.10
2023-03-26T08:32:18.079Z,12.20
2023-03-26T08:34:47.116Z,12.20
2023-03-26T08:37:16.571Z,12.10
2023-03-26T08:39:46.296Z,12.20
2023-03-26T08:42:42.359Z,12.20
2023-03-26T08:45:23.801Z,12.10
2023-03-26T08:48:05.144Z,12.10
2023-03-26T08:50:56.019Z,12.00
2023-03-26T08:53:34.621Z,12.10
2023-03-26T08:56:14.558Z,12.00
2023-03-26T08:59:07.082Z,12.00
2023-03-26T09:01:52.235Z,12.00
2023-03-26T09:04:33.495Z,12.00
2023-03-26T09:07:18.723Z,12.00
2023-03-26T09:10:03.772Z,11.80
2023-03-26T09:12:42.480Z,11.80
2023-03-26T09:15:37.609Z,11.60
2023-03-26T09:18:40.834Z,11.50
2023-03-26T09:21:20.888Z,11.50
2023-03-26T09:24:21.389Z,11.50
2023-03-26T09:27:03.037Z,11.40
2023-03-26T09:30:09.462Z,11.50
2023-03-26T09:32:44.874Z,11.40
2023-03-26T09:35:36.231Z,11.60
2023-03-26T09:38:14.689Z,11.60
2023-03-26T09:40:53.413Z,11.60
2023-03-26T09:43:44.039Z,11.60
2023-03-26T09:46:22.368Z,11.70
2023-03-26T09:49:00.710Z,11.60
2023-03-26T09:51:48.228Z,11.60
2023-03-26T09:54:37.559Z,11.70
2023-03-26T09:57:29.942Z,11.70
2023-03-26T10:00:12.216Z,11.60
2023-03-26T10:03:09.428Z,11.70
2023-03-26T10:06:16.997Z,11.60
2023-03-26T10:09:10.839Z,11.70
2023-03-26T10:11:58.586Z,11.80
2023-03-26T10:14:31.250Z,11.90
2023-03-26T10:17:16.910Z,11.90
2023-03-26T10:19:55.551Z,11.80
2023-03-26T10:22:44.689Z,11.80
2023-03-26T10:25:17.712Z,12.00
2023-03-26T10:28:00.139Z,12.40
2023-03-26T10:30:44.711Z,13.00
2023-03-26T10:33:17.553Z,12.90
2023-03-26T10:35:47.992Z,13.30
2023-03-26T10:38:32.559Z,13.00
2023-03-26T10:41:21.420Z,12.90
2023-03-26T10:44:08.851Z,12.80
2023-03-26T10:46:40.887Z,12.70
2023-03-26T10:49:22.478Z,12.60
2023-03-26T10:51:55.617Z,12.60
2023-03-26T10:54:42.494Z,12.70
2023-03-26T10:57:15.128Z,12.70
2023-03-26T10:59:44.583Z,13.80
2023-03-26T11:02:29.680Z,14.90
2023-03-26T11:05:08.389Z,16.00
2023-03-26T11:07:41.063Z,14.80
2023-03-26T11:10:16.430Z,14.30
2023-03-26T11:13:07.020Z,14.00
2023-03-26T11:15:45.709Z,14.80
2023-03-26T11:18:18.329Z,15.20
2023-03-26T11:21:19.815Z,16.20
2023-03-26T11:24:05.231Z,16.20
2023-03-26T11:26:55.853Z,17.00
2023-03-26T11:29:44.401Z,16.90
2023-03-26T11:32:21.198Z,17.60
2023-03-26T11:34:58.426Z,16.90
2023-03-26T11:37:40.491Z,17.60
2023-03-26T11:40:16.589Z,17.60
2023-03-26T11:42:47.699Z,16.90
2023-03-26T11:45:21.125Z,17.50
2023-03-26T11:47:56.871Z,17.10
2023-03-26T11:50:32.930Z,16.70
2023-03-26T11:53:17.809Z,17.10
2023-03-26T11:56:13.709Z,17.00
2023-03-26T11:58:52.451Z,17.70
2023-03-26T12:01:30.874Z,18.20
2023-03-26T12:04:15.881Z,18.50
2023-03-26T12:06:56.234Z,18.80
2023-03-26T12:09:26.713Z,19.50
2023-03-26T12:11:59.437Z,19.20
2023-03-26T12:14:31.566Z,19.50
2023-03-26T12:17:04.753Z,18.20
2023-03-26T12:19:42.934Z,18.30
2023-03-26T12:22:36.680Z,18.90
2023-03-26T12:25:30.088Z,18.30
2023-03-26T12:28:03.998Z,18.20
2023-03-26T12:30:39.485Z,18.70
2023-03-26T12:33:25.756Z,18.50
2023-03-26T12:35:59.403Z,17.60
2023-03-26T12:38:36.024Z,17.00
2023-03-26T12:44:46.549Z,16.60
2023-03-26T12:44:49.559Z,17.20
2023-03-26T12:47:57.213Z,16.90
2023-03-26T12:49:09.323Z,17.00
2023-03-26T12:51:58.657Z,17.60
2023-03-26T12:54:41.861Z,17.90
2023-03-26T12:57:16.960Z,18.60
2023-03-26T13:00:12.263Z,18.30
2023-03-26T13:02:51.523Z,18.50
2023-03-26T13:05:42.242Z,17.70
2023-03-26T13:08:32.906Z,17.10
2023-03-26T13:11:08.383Z,16.60
2023-03-26T13:13:40.942Z,17.00
2023-03-26T13:16:34.654Z,16.80
2023-03-26T13:19:19.415Z,16.40
2023-03-26T13:22:08.625Z,15.60
2023-03-26T13:24:58.048Z,14.50
2023-03-26T13:27:39.745Z,15.10
2023-03-26T13:30:28.777Z,15.90
2023-03-26T13:33:07.830Z,16.20
2023-03-26T13:36:06.568Z,16.20
2023-03-26T13:38:59.162Z,16.80
2023-03-26T13:41:38.802Z,16.90
2023-03-26T13:44:17.630Z,16.80
2023-03-26T13:46:59.304Z,16.80
2023-03-26T13:49:40.645Z,17.10
2023-03-26T13:52:14.448Z,17.10
2023-03-26T13:54:52.704Z,16.40
2023-03-26T13:57:37.387Z,15.30
2023-03-26T14:00:12.425Z,15.00
2023-03-26T14:02:44.170Z,14.60
2023-03-26T14:05:23.312Z,14.20
2023-03-26T14:07:57.407Z,13.60
2023-03-26T14:10:31.076Z,13.50
2023-03-26T14:13:14.652Z,13.60
2023-03-26T14:15:47.001Z,13.90
2023-03-26T14:18:42.353Z,14.50
2023-03-26T14:21:23.680Z,14.80
2023-03-26T14:24:17.072Z,14.70
2023-03-26T14:27:04.022Z,15.10
2023-03-26T14:29:36.563Z,15.10
2023-03-26T14:32:38.264Z,15.30
2023-03-26T14:35:27.552Z,15.20
2023-03-26T14:38:24.543Z,15.40
2023-03-26T14:41:08.950Z,15.50
2023-03-26T14:43:44.186Z,15.70
2023-03-26T14:46:23.548Z,15.80
2023-03-26T14:49:12.710Z,15.90
2023-03-26T14:52:06.308Z,16.00
2023-03-26T14:54:38.141Z,15.90
2023-03-26T14:57:30.740Z,16.20
2023-03-26T15:00:16.290Z,16.10
2023-03-26T15:03:00.855Z,15.70
2023-03-26T15:05:49.501Z,15.90
2023-03-26T15:08:58.434Z,16.10
2023-03-26T15:12:12.820Z,15.90
2023-03-26T15:14:53.475Z,15.60
2023-03-26T15:17:34.684Z,15.30
2023-03-26T15:20:33.525Z,15.20
2023-03-26T15:23:33.518Z,15.20
2023-03-26T15:26:09.893Z,15.20
2023-03-26T15:28:59.603Z,15.10
2023-03-26T15:32:07.258Z,15.10
2023-03-26T15:35:02.817Z,15.00
2023-03-26T15:37:47.347Z,15.20
2023-03-26T15:40:37.245Z,15.10
2023-03-26T15:43:16.312Z,15.10
2023-03-26T15:46:14.851Z,15.10
2023-03-26T15:49:04.808Z,15.20
2023-03-26T15:51:54.330Z,15.20
2023-03-26T15:54:32.435Z,14.90
2023-03-26T15:57:17.356Z,14.80
2023-03-26T15:59:55.363Z,14.60
2023-03-26T16:03:04.321Z,14.50
2023-03-26T16:05:42.377Z,14.50
2023-03-26T16:08:45.527Z,15.00
2023-03-26T16:11:15.399Z,14.70
2023-03-26T16:13:54.032Z,14.60
2023-03-26T16:16:28.689Z,14.50
2023-03-26T16:19:19.223Z,14.40
2023-03-26T16:22:00.608Z,14.40
2023-03-26T16:24:33.457Z,14.30
2023-03-26T16:27:15.357Z,14.30
2023-03-26T16:30:04.614Z,14.30
2023-03-26T16:32:43.181Z,14.30
2023-03-26T16:35:18.430Z,14.30
2023-03-26T16:37:52.723Z,14.20
2023-03-26T16:40:30.917Z,14.00
2023-03-26T16:43:19.885Z,14.10
2023-03-26T16:46:13.410Z,14.20
2023-03-26T16:48:48.397Z,14.10
2023-03-26T16:51:38.844Z,13.90
2023-03-26T16:54:27.667Z,13.70
2023-03-26T16:57:03.370Z,13.30
2023-03-26T16:59:41.955Z,13.10
2023-03-26T17:02:26.869Z,13.10
2023-03-26T17:05:17.413Z,12.90
2023-03-26T17:08:00.469Z,12.80
2023-03-26T17:10:36.749Z,12.80
2023-03-26T17:13:26.176Z,12.70
2023-03-26T17:16:04.798Z,12.70
2023-03-26T17:18:41.224Z,12.70
2023-03-26T17:21:19.764Z,12.60
2023-03-26T17:24:04.753Z,12.60
2023-03-26T17:27:01.861Z,12.60
2023-03-26T17:29:51.535Z,12.50
2023-03-26T17:32:23.196Z,12.50
2023-03-26T17:35:04.614Z,12.40
2023-03-26T17:37:42.141Z,12.40
2023-03-26T17:40:48.138Z,12.30
2023-03-26T17:43:47.730Z,12.30
2023-03-26T17:46:30.704Z,12.30
2023-03-26T17:49:15.386Z,12.20
2023-03-26T17:51:55.215Z,12.20
2023-03-26T17:54:47.066Z,12.20
2023-03-26T17:57:39.426Z,12.10
2023-03-26T18:00:11.305Z,12.10
2023-03-26T18:02:43.967Z,12.10
2023-03-26T18:05:16.638Z,12.10
2023-03-26T18:07:58.028Z,12.10
2023-03-26T18:10:48.385Z,12.00
2023-03-26T18:13:35.688Z,12.00
2023-03-26T18:16:24.574Z,12.00
2023-03-26T18:19:02.908Z,12.00
2023-03-26T18:21:35.980Z,12.00
2023-03-26T18:24:06.417Z,12.10
2023-03-26T18:26:46.184Z,12.00
2023-03-26T18:29:27.761Z,12.00
2023-03-26T18:32:12.177Z,12.00
2023-03-26T18:34:52.157Z,11.90
2023-03-26T18:37:31.680Z,11.90
2023-03-26T18:40:13.060Z,11.80
2023-03-26T18:42:45.814Z,11.60
2023-03-26T18:45:36.737Z,11.40
2023-03-26T18:48:21.553Z,11.20
2023-03-26T18:51:06.699Z,11.10
2023-03-26T18:53:41.876Z,11.00
2023-03-26T18:56:23.095Z,11.00
2023-03-26T18:58:55.181Z,10.90
2023-03-26T19:01:28.364Z,11.00
2023-03-26T19:04:02.484Z,10.90
2023-03-26T19:06:38.503Z,10.90
2023-03-26T19:09:30.274Z,10.90
2023-03-26T19:11:46.139Z,10.90
2023-03-26T19:14:18.962Z,11.00
2023-03-26T19:16:51.201Z,11.20
2023-03-26T19:19:24.341Z,11.00
2023-03-26T19:21:54.487Z,11.20
2023-03-26T19:24:25.509Z,11.10
2023-03-26T19:26:55.166Z,11.10
2023-03-26T19:29:27.727Z,11.20
2023-03-26T19:32:06.712Z,11.00
2023-03-26T19:34:40.380Z,11.10
2023-03-26T19:37:30.117Z,11.10
2023-03-26T19:40:07.350Z,10.90
2023-03-26T19:42:43.774Z,11.00
2023-03-26T19:45:13.119Z,11.00
2023-03-26T19:47:50.462Z,11.00
2023-03-26T19:50:25.793Z,11.00
2023-03-26T19:53:17.646Z,11.10
2023-03-26T19:55:55.717Z,11.10
2023-03-26T19:58:27.320Z,11.00
2023-03-26T20:00:57.408Z,11.10
2023-03-26T20:03:30.645Z,10.90
2023-03-26T20:06:00.254Z,10.90
2023-03-26T20:08:29.721Z,11.00
2023-03-26T20:10:59.730Z,11.00
2023-03-26T20:13:31.326Z,11.00
2023-03-26T20:16:10.763Z,11.00
2023-03-26T20:18:40.320Z,11.00
2023-03-26T20:21:14.576Z,11.00
2023-03-26T20:24:51.833Z,11.00
2023-03-26T20:27:22.552Z,11.00
2023-03-26T20:29:52.116Z,11.00
2023-03-26T20:32:26.974Z,11.00
2023-03-26T20:34:55.760Z,11.00
2023-03-26T20:37:25.985Z,11.00
2023-03-26T20:39:55.832Z,11.00
2023-03-26T20:42:25.377Z,11.00
2023-03-26T20:44:54.944Z,11.00
2023-03-26T20:47:24.487Z,11.10
2023-03-26T20:49:55.837Z,11.00
2023-03-26T20:52:26.540Z,11.00
2023-03-26T20:54:56.091Z,10.90
2023-03-26T20:57:26.707Z,10.90
2023-03-26T20:59:56.540Z,10.90
2023-03-26T21:02:26.100Z,10.90
2023-03-26T21:04:57.861Z,10.80
2023-03-26T21:07:27.356Z,10.80
2023-03-26T21:09:58.205Z,10.80
2023-03-26T21:12:34.201Z,10.80
2023-03-26T21:15:10.234Z,10.70
2023-03-26T21:17:38.204Z,10.90
2023-03-26T21:20:13.624Z,10.80
2023-03-26T21:22:58.382Z,10.80
2023-03-26T21:25:34.073Z,10.70
2023-03-26T21:28:06.706Z,10.60
2023-03-26T21:30:36.712Z,10.60
2023-03-26T21:33:06.407Z,10.70
2023-03-26T21:35:36.216Z,10.50
2023-03-26T21:38:08.899Z,10.50
2023-03-26T21:40:42.279Z,10.40
2023-03-26T21:43:12.704Z,10.60
2023-03-26T21:45:43.559Z,10.50
2023-03-26T21:48:14.229Z,10.50
2023-03-26T21:51:04.697Z,10.50
2023-03-26T21:53:36.869Z,10.30
2023-03-26T21:56:26.046Z,10.50
2023-03-26T21:59:07.610Z,10.30
2023-03-26T22:01:49.093Z,10.30
2023-03-26T22:04:21.919Z,10.30
2023-03-26T22:07:00.350Z,10.60
2023-03-26T22:09:36.375Z,10.30
2023-03-26T22:12:20.581Z,10.20
2023-03-26T22:14:50.082Z,10.20
2023-03-26T22:17:19.808Z,10.50
2023-03-26T22:19:49.281Z,10.40
2023-03-26T22:22:18.795Z,10.20
2023-03-26T22:24:48.280Z,10.30
2023-03-26T22:27:17.770Z,10.30
2023-03-26T22:29:47.688Z,10.10
2023-03-26T22:32:17.165Z,10.30
2023-03-26T22:34:46.642Z,10.00
2023-03-26T22:37:16.592Z,10.00
2023-03-26T22:39:47.193Z,10.10
2023-03-26T22:42:16.707Z,10.10
2023-03-26T22:44:47.180Z,10.00
2023-03-26T22:47:17.202Z,10.10
2023-03-26T22:49:46.698Z,10.00
2023-03-26T22:52:16.443Z,10.10
2023-03-26T22:54:46.516Z,10.10
2023-03-26T22:57:18.948Z,10.00
2023-03-26T22:59:48.556Z,9.90
2023-03-26T23:02:18.560Z,10.00
2023-03-26T23:04:49.181Z,10.00
2023-03-26T23:07:18.743Z,9.90
2023-03-26T23:09:49.187Z,9.90
2023-03-26T23:12:18.650Z,9.90
2023-03-26T23:14:49.797Z,10.00
2023-03-26T23:17:19.967Z,10.00
2023-03-26T23:19:49.537Z,9.90
2023-03-26T23:22:19.527Z,9.80
2023-03-26T23:24:51.957Z,9.80
2023-03-26T23:27:23.010Z,9.90
2023-03-26T23:29:53.381Z,9.90
2023-03-26T23:32:25.173Z,9.80
2023-03-26T23:34:56.856Z,9.80
2023-03-26T23:37:26.967Z,9.60
2023-03-26T23:39:56.543Z,9.60
2023-03-26T23:42:29.242Z,9.60
2023-03-26T23:44:58.220Z,9.70
2023-03-26T23:47:29.342Z,9.80
2023-03-26T23:49:58.905Z,9.60
2023-03-26T23:52:28.921Z,9.60
2023-03-26T23:55:02.087Z,9.60
2023-03-26T23:57:31.950Z,9.80
